North Haven, New York
Current Conditions -  °F | °C
As of 9:53 PM on Tuesday 21 Oct 2014 (Local Time) from KFOK Reporting Station
Overcast Overcast  
Wind Chill: 57°   Ceiling: 6500
Heat Index: 57°   Visibility: 10mi
Dew Point: 54°   Wind: 6mph
Humidity: 89%   Direction: 70°ENE
Pressure: 29.91"   Gusts: NA
Location:  40.9692°N, 72.306°W
Report Text: KFOK 220153Z AUTO 07005KT 10SM BKN065 OVC080 14/12 A2991 RMK AO2 SLP128 T01390122 TSNO
Loading
Personal Weather Stations






























Interactive Weather Map
Tropical Storm Tracking
New forecast layout! Learn more

10-Day Weather Forecast

Advertisements
Track Severe Weather on mobile